Time;durP1;ratioP1;P1;durP2;ratioP2;P2;SDS_P1;SDS_P2;PMS_P1;PMS_P2;Temp;Humidity;BMP_temperature;BMP_pressure;BME280_temperature;BME280_humidity;BME280_pressure;Samples;Min_cycle;Max_cycle;Signal;HPM_P1;HPM_P2
2023/08/05 00:00:51;;;;;;;;;;;;;;;22.39;55.97;101677.53;5063735;28;19927;-63
2023/08/05 00:03:16;;;;;;;;;;;;;;;22.39;55.79;101674.81;5063966;28;19924;-62
2023/08/05 00:05:42;;;;;;;;;;;;;;;22.38;55.84;101666.84;5063911;28;20250;-60
2023/08/05 00:08:07;;;;;;;;;;;;;;;22.38;56.06;101664.13;5063838;28;19916;-60
2023/08/05 00:10:32;;;;;;;;;;;;;;;22.38;55.87;101662.25;5064162;28;20019;-60
2023/08/05 00:12:58;;;;;;;;;;;;;;;22.37;55.87;101657.88;5064318;28;19968;-60
2023/08/05 00:15:23;;;;;;;;;;;;;;;22.37;55.92;101655.16;5063239;28;19925;-61
2023/08/05 00:17:48;;;;;;;;;;;;;;;22.36;55.98;101648.06;5095357;28;19932;-61
2023/08/05 00:20:13;;;;;;;;;;;;;;;22.36;55.92;101655.34;5063254;28;19925;-61
2023/08/05 00:22:38;;;;;;;;;;;;;;;22.36;55.99;101649.91;5066600;28;19971;-60
2023/08/05 00:25:04;;;;;;;;;;;;;;;22.34;56.08;101644.66;5063960;28;19920;-57
2023/08/05 00:27:29;;;;;;;;;;;;;;;22.34;55.69;101646.53;5064060;28;19920;-62
2023/08/05 00:29:54;;;;;;;;;;;;;;;22.33;55.94;101637.56;5063320;28;19917;-61
2023/08/05 00:32:19;;;;;;;;;;;;;;;22.33;56.06;101631.28;5063295;28;20004;-62
2023/08/05 00:34:45;;;;;;;;;;;;;;;22.32;55.77;101630.44;5063022;28;19916;-58
2023/08/05 00:37:10;;;;;;;;;;;;;;;22.32;55.95;101632.31;5066703;28;19981;-63
2023/08/05 00:39:35;;;;;;;;;;;;;;;22.32;56.06;101630.44;5063723;28;20377;-62
2023/08/05 00:42:00;;;;;;;;;;;;;;;22.31;55.62;101631.47;5063370;28;20332;-62
2023/08/05 00:44:26;;;;;;;;;;;;;;;22.30;55.84;101618.97;5063715;28;19935;-62
2023/08/05 00:46:51;;;;;;;;;;;;;;;22.30;55.73;101626.22;5062714;28;19923;-61
2023/08/05 00:49:16;;;;;;;;;;;;;;;22.29;55.84;101625.38;5093296;28;19920;-63
2023/08/05 00:51:41;;;;;;;;;;;;;;;22.29;55.75;101633.50;5062123;28;19979;-62
2023/08/05 00:54:07;;;;;;;;;;;;;;;22.29;55.75;101629.94;5063553;28;19974;-59
2023/08/05 00:56:32;;;;;;;;;;;;;;;22.29;55.87;101635.38;5063549;28;19921;-62
2023/08/05 00:58:57;;;;;;;;;;;;;;;22.28;55.64;101623.69;5095489;28;20015;-63
2023/08/05 01:01:22;;;;;;;;;;;;;;;22.28;55.74;101626.41;5065413;28;19967;-62
2023/08/05 01:03:47;;;;;;;;;;;;;;;22.27;55.81;101621.16;5063235;28;19928;-62
2023/08/05 01:06:13;;;;;;;;;;;;;;;22.27;55.89;101621.16;5062864;28;19916;-62
2023/08/05 01:08:38;;;;;;;;;;;;;;;22.27;55.81;101615.75;5061443;28;20011;-61
2023/08/05 01:11:03;;;;;;;;;;;;;;;22.26;55.81;101619.44;5097869;28;20003;-61
2023/08/05 01:13:31;;;;;;;;;;;;;;;22.26;55.75;101622.16;5068906;28;19936;-61
2023/08/05 01:15:56;;;;;;;;;;;;;;;22.25;55.65;101625.91;5067547;28;19935;-61
2023/08/05 01:18:22;;;;;;;;;;;;;;;22.26;55.50;101633.00;5067180;28;19936;-61
2023/08/05 01:20:49;;;;;;;;;;;;;;;22.24;55.71;101633.19;5066396;28;19947;-61
2023/08/05 01:23:18;;;;;;;;;;;;;;;22.24;55.65;101624.22;5068762;28;20058;-60
2023/08/05 01:25:44;;;;;;;;;;;;;;;22.23;55.76;101612.53;5070058;28;19992;-61
2023/08/05 01:28:09;;;;;;;;;;;;;;;22.23;55.62;101603.56;5097689;28;19924;-61
2023/08/05 01:30:34;;;;;;;;;;;;;;;22.24;55.94;101610.66;5099946;28;19925;-58
2023/08/05 01:33:00;;;;;;;;;;;;;;;22.22;55.47;101600.03;5066761;28;19917;-60
2023/08/05 01:35:25;;;;;;;;;;;;;;;22.22;55.85;101602.72;5066790;28;19924;-60
2023/08/05 01:37:50;;;;;;;;;;;;;;;22.21;55.78;101592.88;5067403;28;19947;-60
2023/08/05 01:40:15;;;;;;;;;;;;;;;22.20;55.85;101597.47;5067044;28;19978;-61
2023/08/05 01:42:41;;;;;;;;;;;;;;;22.19;55.72;101584.94;5068492;28;19920;-56
2023/08/05 01:45:06;;;;;;;;;;;;;;;22.19;55.71;101579.53;5065647;28;20515;-61
2023/08/05 01:47:31;;;;;;;;;;;;;;;22.18;55.69;101567.00;5066580;28;20308;-57
2023/08/05 01:49:57;;;;;;;;;;;;;;;22.19;55.80;101573.28;5066433;28;19978;-60
2023/08/05 01:52:22;;;;;;;;;;;;;;;22.17;55.55;101567.16;5066737;28;19947;-61
2023/08/05 01:54:47;;;;;;;;;;;;;;;22.17;55.85;101578.88;5066059;28;19917;-60
2023/08/05 01:57:12;;;;;;;;;;;;;;;22.17;55.44;101578.00;5066380;28;19920;-61
2023/08/05 01:59:37;;;;;;;;;;;;;;;22.16;55.61;101582.56;5066947;28;20003;-61
2023/08/05 02:02:03;;;;;;;;;;;;;;;22.16;55.49;101581.75;5066806;28;19924;-61
2023/08/05 02:04:28;;;;;;;;;;;;;;;22.15;55.62;101588.19;5065694;28;19940;-60
2023/08/05 02:06:53;;;;;;;;;;;;;;;22.15;55.82;101586.31;5067146;28;20015;-60
2023/08/05 02:09:18;;;;;;;;;;;;;;;22.15;55.57;101594.44;5066136;28;19968;-61
2023/08/05 02:11:44;;;;;;;;;;;;;;;22.14;55.80;101598.16;5065897;28;19960;-59
2023/08/05 02:14:09;;;;;;;;;;;;;;;22.13;55.43;101604.63;5065762;28;19917;-61
2023/08/05 02:16:34;;;;;;;;;;;;;;;22.13;55.67;101598.31;5066256;28;19917;-61
2023/08/05 02:18:59;;;;;;;;;;;;;;;22.12;55.66;101583.94;5065917;28;19920;-60
2023/08/05 02:21:25;;;;;;;;;;;;;;;22.12;55.46;101588.47;5065221;28;19975;-61
2023/08/05 02:23:50;;;;;;;;;;;;;;;22.11;55.76;101593.06;5066534;28;20354;-61
2023/08/05 02:26:15;;;;;;;;;;;;;;;22.10;55.46;101580.53;5065724;28;20451;-62
2023/08/05 02:28:40;;;;;;;;;;;;;;;22.09;55.55;101573.44;5066301;28;19923;-61
2023/08/05 02:31:06;;;;;;;;;;;;;;;22.09;55.78;101587.00;5068420;28;20328;-61
2023/08/05 02:33:31;;;;;;;;;;;;;;;22.09;55.48;101584.28;5065906;28;19917;-61
2023/08/05 02:35:59;;;;;;;;;;;;;;;22.09;55.73;101578.00;5066397;28;19993;-61
2023/08/05 02:38:25;;;;;;;;;;;;;;;22.07;55.61;101575.47;5067346;28;20369;-61
2023/08/05 02:40:50;;;;;;;;;;;;;;;22.08;55.75;101574.44;5065785;28;19930;-61
2023/08/05 02:43:15;;;;;;;;;;;;;;;22.07;55.67;101577.34;5065330;28;19921;-60
2023/08/05 02:45:41;;;;;;;;;;;;;;;22.07;55.43;101571.91;5065721;28;19925;-61
2023/08/05 02:48:06;;;;;;;;;;;;;;;22.06;55.69;101562.13;5064918;28;19916;-60
2023/08/05 02:50:31;;;;;;;;;;;;;;;22.05;55.51;101555.84;5064881;28;20013;-60
2023/08/05 02:52:56;;;;;;;;;;;;;;;22.05;55.55;101553.16;5065568;28;19978;-60
2023/08/05 02:55:22;;;;;;;;;;;;;;;22.05;55.39;101555.84;5066896;28;19924;-60
2023/08/05 02:57:47;;;;;;;;;;;;;;;22.05;55.51;101557.72;5065555;28;19928;-61
2023/08/05 03:00:12;;;;;;;;;;;;;;;22.04;55.51;101562.25;5064417;28;19978;-60
2023/08/05 03:02:37;;;;;;;;;;;;;;;22.04;55.70;101562.25;5064855;28;19952;-61
2023/08/05 03:05:03;;;;;;;;;;;;;;;22.03;55.60;101560.59;5064499;28;19944;-60
2023/08/05 03:07:28;;;;;;;;;;;;;;;22.02;55.52;101548.06;5065233;28;19927;-60
2023/08/05 03:09:53;;;;;;;;;;;;;;;22.03;55.60;101554.31;5063471;28;19924;-60
2023/08/05 03:12:18;;;;;;;;;;;;;;;22.02;55.44;101552.66;5081023;28;19927;-60
2023/08/05 03:14:44;;;;;;;;;;;;;;;22.02;55.40;101544.53;5065201;28;19920;-59
2023/08/05 03:17:09;;;;;;;;;;;;;;;22.01;55.55;101543.69;5064143;28;19917;-57
2023/08/05 03:19:34;;;;;;;;;;;;;;;22.02;55.71;101544.53;5064894;28;19928;-61
2023/08/05 03:21:59;;;;;;;;;;;;;;;22.03;55.63;101548.91;5064931;28;19921;-60
2023/08/05 03:24:24;;;;;;;;;;;;;;;22.00;55.46;101544.69;5068603;28;19917;-59
2023/08/05 03:26:50;;;;;;;;;;;;;;;22.01;55.42;101548.25;5064436;28;19917;-60
2023/08/05 03:29:15;;;;;;;;;;;;;;;22.00;55.45;101541.97;5065773;28;19970;-61
2023/08/05 03:31:40;;;;;;;;;;;;;;;22.00;55.75;101538.41;5067272;28;19917;-61
2023/08/05 03:34:05;;;;;;;;;;;;;;;21.99;55.72;101539.44;5063236;28;19925;-60
2023/08/05 03:36:31;;;;;;;;;;;;;;;21.99;55.64;101536.75;5064226;28;19938;-61
2023/08/05 03:38:56;;;;;;;;;;;;;;;21.98;55.56;101524.22;5064583;28;19920;-60
2023/08/05 03:41:21;;;;;;;;;;;;;;;21.99;55.50;101523.19;5066162;28;19928;-60
2023/08/05 03:43:46;;;;;;;;;;;;;;;;;;5064490;28;19916;-60
2023/08/05 03:46:11;;;;;;;;;;;;;;;21.63;55.52;101464.94;5063893;28;19917;-60
2023/08/05 03:48:37;;;;;;;;;;;;;;;21.95;55.44;101517.28;5064166;28;19938;-60
2023/08/05 03:51:02;;;;;;;;;;;;;;;21.95;55.48;101512.72;5064473;28;19952;-60
2023/08/05 03:53:28;;;;;;;;;;;;;;;21.95;55.27;101510.00;5065230;28;19928;-61
2023/08/05 03:55:53;;;;;;;;;;;;;;;21.95;55.49;101501.03;5064209;28;19923;-60
2023/08/05 03:58:19;;;;;;;;;;;;;;;21.95;55.51;101506.44;5064554;28;19943;-60
2023/08/05 04:00:45;;;;;;;;;;;;;;;21.94;55.49;101492.06;5064009;28;19924;-60
2023/08/05 04:03:10;;;;;;;;;;;;;;;21.94;55.66;101485.81;5063714;28;19931;-60
2023/08/05 04:05:35;;;;;;;;;;;;;;;21.93;55.39;101471.44;5063191;28;19917;-60
2023/08/05 04:08:01;;;;;;;;;;;;;;;21.92;55.47;101477.88;5065195;28;19923;-60
2023/08/05 04:10:26;;;;;;;;;;;;;;;21.93;55.47;101476.84;5064278;28;19947;-59
2023/08/05 04:12:51;;;;;;;;;;;;;;;21.92;55.40;101474.34;5064384;28;19916;-60
2023/08/05 04:15:18;;;;;;;;;;;;;;;21.93;55.58;101476.00;5063007;28;19931;-60
2023/08/05 04:17:44;;;;;;;;;;;;;;;21.92;55.52;101485.16;5063980;28;19988;-59
2023/08/05 04:20:11;;;;;;;;;;;;;;;21.91;55.48;101489.72;5063720;28;19921;-60
2023/08/05 04:22:38;;;;;;;;;;;;;;;21.92;55.66;101485.16;5062218;28;19920;-60
2023/08/05 04:25:03;;;;;;;;;;;;;;;21.91;55.52;101488.88;5063622;28;20034;-61
2023/08/05 04:27:28;;;;;;;;;;;;;;;21.90;55.22;101487.19;5065192;28;20326;-60
2023/08/05 04:29:53;;;;;;;;;;;;;;;21.90;55.43;101481.78;5063586;28;20266;-57
2023/08/05 04:32:19;;;;;;;;;;;;;;;21.89;55.35;101489.06;5062835;28;19921;-60
2023/08/05 04:34:44;;;;;;;;;;;;;;;21.89;55.63;101485.50;5063263;28;19956;-59
2023/08/05 04:37:19;;;;;;;;;;;;;;;21.89;55.34;101478.22;5065290;28;20534;-60
2023/08/05 04:39:44;;;;;;;;;;;;;;;21.89;55.63;101474.69;5094696;28;20502;-59
2023/08/05 04:42:10;;;;;;;;;;;;;;;21.89;55.46;101478.22;5065068;28;20000;-60
2023/08/05 04:44:35;;;;;;;;;;;;;;;21.89;55.54;101466.56;5064859;28;19925;-58
2023/08/05 04:47:01;;;;;;;;;;;;;;;21.88;55.60;101465.72;5062396;28;20327;-59
2023/08/05 04:49:26;;;;;;;;;;;;;;;21.89;55.68;101461.13;5063268;28;19967;-59
2023/08/05 04:51:51;;;;;;;;;;;;;;;21.88;55.69;101464.88;5065704;28;19917;-60
2023/08/05 04:54:16;;;;;;;;;;;;;;;21.88;55.55;101464.88;5064404;28;19928;-59
2023/08/05 04:56:41;;;;;;;;;;;;;;;21.87;55.64;101461.28;5064372;28;19917;-59
2023/08/05 04:59:07;;;;;;;;;;;;;;;21.88;55.80;101462.16;5063319;28;20007;-60
2023/08/05 05:01:32;;;;;;;;;;;;;;;21.88;55.51;101462.16;5064350;28;19935;-60
2023/08/05 05:03:57;;;;;;;;;;;;;;;21.87;55.73;101452.34;5058021;28;20329;-61
2023/08/05 05:06:23;;;;;;;;;;;;;;;21.79;55.96;101428.00;5058447;28;19921;-60
2023/08/05 05:08:49;;;;;;;;;;;;;;;21.88;55.82;101449.47;5075518;28;19924;-60
2023/08/05 05:11:14;;;;;;;;;;;;;;;21.88;55.82;101443.22;5062989;28;19923;-61
2023/08/05 05:13:39;;;;;;;;;;;;;;;21.88;55.94;101445.91;5069104;28;19917;-60
2023/08/05 05:16:04;;;;;;;;;;;;;;;21.89;56.05;101453.03;5063024;28;19924;-60
2023/08/05 05:18:29;;;;;;;;;;;;;;;21.89;56.09;101459.28;5064573;28;20305;-56
2023/08/05 05:20:55;;;;;;;;;;;;;;;21.90;56.22;101452.81;5063241;28;19921;-60
2023/08/05 05:23:20;;;;;;;;;;;;;;;21.90;56.06;101444.72;5062382;28;19917;-59
2023/08/05 05:25:45;;;;;;;;;;;;;;;21.91;56.16;101435.56;5063128;28;19921;-60
2023/08/05 05:28:10;;;;;;;;;;;;;;;21.91;56.35;101432.00;5063025;28;19920;-60
2023/08/05 05:30:36;;;;;;;;;;;;;;;21.91;56.18;101424.72;5062738;28;19921;-60
2023/08/05 05:33:01;;;;;;;;;;;;;;;21.92;56.34;101429.16;5063105;28;20381;-58
2023/08/05 05:35:28;;;;;;;;;;;;;;;21.92;56.30;101423.72;5063007;28;19928;-60
2023/08/05 05:37:53;;;;;;;;;;;;;;;21.91;56.34;101423.88;5063384;28;19980;-60
2023/08/05 05:40:18;;;;;;;;;;;;;;;21.92;56.41;101426.44;5062639;28;19913;-55
2023/08/05 05:42:43;;;;;;;;;;;;;;;21.92;56.56;101428.31;5063353;28;19924;-60
2023/08/05 05:45:09;;;;;;;;;;;;;;;21.93;56.35;101430.00;5062995;28;19917;-60
2023/08/05 05:47:34;;;;;;;;;;;;;;;21.92;56.44;101426.44;5062708;28;19913;-60
2023/08/05 05:50:00;;;;;;;;;;;;;;;21.92;56.50;101434.56;5062685;28;19948;-60
2023/08/05 05:52:25;;;;;;;;;;;;;;;21.93;56.28;101424.56;5062936;28;19919;-60
2023/08/05 05:54:50;;;;;;;;;;;;;;;21.92;56.63;101421.03;5063397;28;19919;-60
2023/08/05 05:57:15;;;;;;;;;;;;;;;21.94;56.27;101416.25;5064757;28;19916;-60
2023/08/05 05:59:42;;;;;;;;;;;;;;;21.94;56.49;101418.13;5066328;28;19912;-60
2023/08/05 06:02:08;;;;;;;;;;;;;;;21.94;56.61;101415.44;5065428;28;19924;-58
2023/08/05 06:04:33;;;;;;;;;;;;;;;21.95;56.60;101422.53;5066291;28;19927;-56
2023/08/05 06:07:01;;;;;;;;;;;;;;;21.94;56.52;101415.44;5098981;28;19917;-60
2023/08/05 06:09:27;;;;;;;;;;;;;;;21.95;56.59;101411.69;5065976;28;19916;-55
2023/08/05 06:11:52;;;;;;;;;;;;;;;21.95;56.47;101417.94;5066364;28;19988;-60
2023/08/05 06:14:18;;;;;;;;;;;;;;;21.95;56.54;101420.66;5066336;28;19939;-60
2023/08/05 06:16:44;;;;;;;;;;;;;;;21.95;56.61;101420.66;5066267;28;19924;-59
2023/08/05 06:19:09;;;;;;;;;;;;;;;21.96;56.45;101418.78;5065511;28;20416;-54
2023/08/05 06:21:34;;;;;;;;;;;;;;;21.96;56.58;101413.38;5065832;28;20003;-60
2023/08/05 06:23:59;;;;;;;;;;;;;;;21.96;56.64;101421.50;5098447;28;20661;-60
2023/08/05 06:26:26;;;;;;;;;;;;;;;21.96;56.44;101418.78;5066020;28;20003;-60
2023/08/05 06:28:52;;;;;;;;;;;;;;;21.96;56.67;101421.50;5065710;28;20570;-59
2023/08/05 06:31:17;;;;;;;;;;;;;;;21.95;56.54;101415.22;5065938;28;19917;-60
2023/08/05 06:33:42;;;;;;;;;;;;;;;21.96;56.84;101408.81;5065745;28;19917;-60
2023/08/05 06:36:07;;;;;;;;;;;;;;;21.96;56.46;101407.97;5065403;28;19919;-61
2023/08/05 06:38:32;;;;;;;;;;;;;;;21.96;56.57;101422.38;5060453;28;20017;-61
2023/08/05 06:40:58;;;;;;;;;;;;;;;21.96;56.86;101416.94;5062094;28;19928;-60
2023/08/05 06:43:23;;;;;;;;;;;;;;;;;;5065903;28;19916;-60
2023/08/05 06:45:48;;;;;;;;;;;;;;;;;;5065675;28;19924;-60
2023/08/05 06:48:13;;;;;;;;;;;;;;;21.98;56.39;101402.38;5065048;28;19921;-60
2023/08/05 06:50:39;;;;;;;;;;;;;;;21.99;56.43;101401.34;5065510;28;19935;-55
2023/08/05 06:53:04;;;;;;;;;;;;;;;21.99;56.55;101398.66;5065259;28;19917;-61
2023/08/05 06:55:29;;;;;;;;;;;;;;;21.99;56.48;101402.19;5065110;28;19920;-60
2023/08/05 06:57:54;;;;;;;;;;;;;;;21.99;56.39;101387.81;5065712;28;19942;-60
2023/08/05 07:00:20;;;;;;;;;;;;;;;22.00;56.37;101392.19;5064800;28;20351;-59
2023/08/05 07:02:45;;;;;;;;;;;;;;;22.00;56.53;101390.34;5065100;28;19921;-61
2023/08/05 07:05:10;;;;;;;;;;;;;;;21.98;56.40;101395.09;5064612;28;20104;-60
2023/08/05 07:07:35;;;;;;;;;;;;;;;22.00;56.45;101397.63;5064630;28;19913;-60
2023/08/05 07:10:01;;;;;;;;;;;;;;;22.00;56.28;101395.75;5065092;28;19943;-60
2023/08/05 07:12:27;;;;;;;;;;;;;;;22.01;56.49;101385.78;5063376;28;19920;-60
2023/08/05 07:14:53;;;;;;;;;;;;;;;22.00;56.42;101382.22;5063602;28;19920;-59
2023/08/05 07:17:18;;;;;;;;;;;;;;;22.01;56.43;101377.66;5064153;28;20297;-60
2023/08/05 07:19:43;;;;;;;;;;;;;;;22.01;56.48;101383.09;5064780;28;20289;-59
2023/08/05 07:22:08;;;;;;;;;;;;;;;22.01;56.24;101372.25;5065176;28;20392;-61
2023/08/05 07:24:34;;;;;;;;;;;;;;;22.02;56.16;101373.94;5064845;28;20377;-61
2023/08/05 07:26:59;;;;;;;;;;;;;;;22.02;56.23;101382.06;5064897;28;20286;-59
2023/08/05 07:29:24;;;;;;;;;;;;;;;22.03;56.09;101375.59;5064527;28;19917;-61
2023/08/05 07:31:49;;;;;;;;;;;;;;;22.03;56.14;101381.88;5064960;28;19924;-60
2023/08/05 07:34:15;;;;;;;;;;;;;;;22.03;56.17;101379.16;5063835;28;19924;-60
2023/08/05 07:36:43;;;;;;;;;;;;;;;22.03;56.05;101371.03;5064673;28;20353;-59
2023/08/05 07:39:08;;;;;;;;;;;;;;;22.05;56.25;101373.59;5064453;28;19924;-60
2023/08/05 07:41:33;;;;;;;;;;;;;;;22.04;55.97;101364.59;5064595;28;19925;-61
2023/08/05 07:44:00;;;;;;;;;;;;;;;22.05;56.12;101369.00;5064669;28;19923;-61
2023/08/05 07:46:26;;;;;;;;;;;;;;;22.05;56.07;101365.47;5064285;28;19925;-60
2023/08/05 07:48:52;;;;;;;;;;;;;;;22.06;55.92;101361.72;5063619;28;19963;-60
2023/08/05 07:51:18;;;;;;;;;;;;;;;22.05;56.03;101363.59;5061353;28;19916;-61
2023/08/05 07:53:43;;;;;;;;;;;;;;;22.06;55.89;101359.00;5064340;28;19917;-60
2023/08/05 07:56:12;;;;;;;;;;;;;;;22.06;56.07;101359.00;5064185;28;19913;-61
2023/08/05 07:58:42;;;;;;;;;;;;;;;22.06;55.87;101348.19;5064360;28;19913;-60
2023/08/05 08:01:08;;;;;;;;;;;;;;;22.06;55.77;101346.31;5062385;28;19939;-61
2023/08/05 08:03:33;;;;;;;;;;;;;;;22.06;55.95;101338.19;5063674;28;19955;-61
2023/08/05 08:05:59;;;;;;;;;;;;;;;22.06;55.69;101335.47;5060407;28;19920;-61
2023/08/05 08:08:24;;;;;;;;;;;;;;;22.06;56.05;101334.66;5061692;28;19924;-61
2023/08/05 08:10:49;;;;;;;;;;;;;;;22.06;56.03;101315.69;5063482;28;19951;-58
2023/08/05 08:13:14;;;;;;;;;;;;;;;22.06;56.09;101310.28;5064034;28;19912;-61
2023/08/05 08:15:40;;;;;;;;;;;;;;;22.06;55.75;101312.97;5063856;28;19913;-61
2023/08/05 08:18:05;;;;;;;;;;;;;;;22.05;55.86;101312.16;5063813;28;19959;-60
2023/08/05 08:20:30;;;;;;;;;;;;;;;22.04;55.95;101313.13;5062399;28;20198;-60
2023/08/05 08:22:55;;;;;;;;;;;;;;;22.05;55.89;101308.59;5063595;28;19916;-59
2023/08/05 08:25:20;;;;;;;;;;;;;;;22.05;55.88;101304.03;5063678;28;19935;-61
2023/08/05 08:27:46;;;;;;;;;;;;;;;22.05;55.87;101306.72;5063770;28;19921;-61
2023/08/05 08:30:12;;;;;;;;;;;;;;;22.06;55.99;101302.16;5063476;28;19920;-55
2023/08/05 08:32:37;;;;;;;;;;;;;;;22.05;56.02;101298.59;5061629;28;19917;-60
2023/08/05 08:35:02;;;;;;;;;;;;;;;22.05;56.08;101298.59;5063253;28;19925;-60
2023/08/05 08:37:28;;;;;;;;;;;;;;;22.06;55.74;101299.44;5063849;28;19913;-61
2023/08/05 08:39:53;;;;;;;;;;;;;;;22.05;56.00;101293.19;5063369;28;20466;-56
2023/08/05 08:42:19;;;;;;;;;;;;;;;22.05;55.87;101282.34;5063376;28;19916;-61
2023/08/05 08:44:44;;;;;;;;;;;;;;;22.06;55.68;101275.06;5063555;28;19917;-58
2023/08/05 08:47:09;;;;;;;;;;;;;;;22.06;55.96;101278.63;5096106;28;19919;-60
2023/08/05 08:49:35;;;;;;;;;;;;;;;22.07;55.99;101269.47;5063356;28;19916;-61
2023/08/05 08:52:00;;;;;;;;;;;;;;;22.07;55.90;101265.91;5062855;28;19919;-60
2023/08/05 08:54:26;;;;;;;;;;;;;;;22.07;55.99;101260.50;5063867;28;19936;-60
2023/08/05 08:56:51;;;;;;;;;;;;;;;22.09;56.06;101258.44;5061911;28;20293;-61
2023/08/05 08:59:17;;;;;;;;;;;;;;;22.09;55.75;101255.72;5063331;28;19924;-60
2023/08/05 09:01:42;;;;;;;;;;;;;;;22.09;55.93;101256.59;5062568;28;20652;-60
2023/08/05 09:04:08;;;;;;;;;;;;;;;22.10;56.04;101250.16;5062543;28;20270;-60
2023/08/05 09:06:33;;;;;;;;;;;;;;;22.11;55.79;101246.41;5095376;28;20007;-61
2023/08/05 09:08:58;;;;;;;;;;;;;;;22.12;55.82;101247.25;5062007;28;20384;-59
2023/08/05 09:11:23;;;;;;;;;;;;;;;22.12;55.60;101241.84;5062965;28;19920;-61
2023/08/05 09:13:50;;;;;;;;;;;;;;;22.11;55.76;101232.88;5062194;28;19928;-60
2023/08/05 09:16:15;;;;;;;;;;;;;;;22.12;55.67;101240.00;5063320;28;19952;-61
2023/08/05 09:18:44;;;;;;;;;;;;;;;22.12;55.95;101233.72;5063191;28;19917;-61
2023/08/05 09:21:09;;;;;;;;;;;;;;;22.12;55.73;101231.88;5062745;28;19920;-59
2023/08/05 09:23:43;;;;;;;;;;;;;;;22.12;55.92;101240.00;5063380;28;19924;-59
2023/08/05 09:26:08;;;;;;;;;;;;;;;22.13;56.01;101230.00;5062866;28;19913;-60
2023/08/05 09:28:34;;;;;;;;;;;;;;;22.13;55.98;101230.88;5062030;28;20020;-58
2023/08/05 09:31:12;;;;;;;;;;;;;;;22.14;56.08;101219.00;5064390;28;19913;-60
2023/08/05 09:33:38;;;;;;;;;;;;;;;22.15;55.64;101217.16;5066740;28;19913;-56
2023/08/05 09:36:07;;;;;;;;;;;;;;;22.15;55.70;101215.28;5066333;28;19927;-60
2023/08/05 09:38:32;;;;;;;;;;;;;;;22.16;55.89;101222.38;5067203;28;19913;-61
2023/08/05 09:40:59;;;;;;;;;;;;;;;22.16;55.93;101221.53;5064978;28;19939;-60
2023/08/05 09:43:25;;;;;;;;;;;;;;;22.17;56.05;101215.06;5067143;28;19919;-57
2023/08/05 09:45:50;;;;;;;;;;;;;;;22.17;56.06;101205.13;5063506;28;20007;-61
2023/08/05 09:48:16;;;;;;;;;;;;;;;22.18;55.86;101200.53;5065359;28;20298;-60
2023/08/05 09:50:42;;;;;;;;;;;;;;;22.19;56.04;101204.91;5066257;28;19996;-61
2023/08/05 09:53:09;;;;;;;;;;;;;;;22.19;55.80;101191.38;5066957;28;20114;-54
2023/08/05 09:55:35;;;;;;;;;;;;;;;22.19;56.05;101189.50;5065754;28;19921;-60
2023/08/05 09:58:01;;;;;;;;;;;;;;;22.19;55.91;101186.81;5065294;28;20365;-61
2023/08/05 10:00:27;;;;;;;;;;;;;;;22.20;55.91;101182.22;5065787;28;19917;-60
2023/08/05 10:02:53;;;;;;;;;;;;;;;22.20;55.74;101180.34;5065952;28;19995;-60
2023/08/05 10:05:18;;;;;;;;;;;;;;;22.22;55.81;101174.78;5098250;28;19923;-60
2023/08/05 10:07:44;;;;;;;;;;;;;;;22.22;55.85;101161.22;5066198;28;19970;-60
2023/08/05 10:10:11;;;;;;;;;;;;;;;22.21;55.83;101162.22;5066112;28;19966;-57
2023/08/05 10:12:40;;;;;;;;;;;;;;;22.22;55.92;101153.09;5066504;28;19917;-60
2023/08/05 10:15:06;;;;;;;;;;;;;;;22.21;55.80;101149.53;5066178;28;19923;-56
2023/08/05 10:17:31;;;;;;;;;;;;;;;22.23;55.92;101140.41;5098337;28;19913;-60
2023/08/05 10:19:57;;;;;;;;;;;;;;;22.23;56.02;101143.09;5098268;28;19920;-60
2023/08/05 10:22:22;;;;;;;;;;;;;;;22.24;55.93;101140.19;5098161;28;20004;-60
2023/08/05 10:24:57;;;;;;;;;;;;;;;22.25;56.07;101132.91;5066559;28;19976;-60
2023/08/05 10:27:38;;;;;;;;;;;;;;;22.25;55.98;101131.03;5081052;28;19995;-60
2023/08/05 10:30:09;;;;;;;;;;;;;;;22.27;56.01;101130.88;5064948;28;19994;-60
2023/08/05 10:32:35;;;;;;;;;;;;;;;22.27;55.66;101126.28;5065076;28;20374;-58
2023/08/05 10:35:19;;;;;;;;;;;;;;;22.28;55.85;101125.25;5064156;28;19916;-57
2023/08/05 10:37:47;;;;;;;;;;;;;;;22.29;56.07;101126.94;5065953;28;19920;-60
2023/08/05 10:40:13;;;;;;;;;;;;;;;22.30;55.51;101128.66;5065613;28;19917;-59
2023/08/05 10:42:38;;;;;;;;;;;;;;;22.32;55.80;101133.88;5065249;28;19924;-59
2023/08/05 10:45:04;;;;;;;;;;;;;;;22.31;55.94;101122.19;5065736;28;19952;-59
2023/08/05 10:47:29;;;;;;;;;;;;;;;22.33;55.76;101127.41;5064872;28;19935;-60
2023/08/05 10:49:58;;;;;;;;;;;;;;;22.34;56.00;101127.22;5065719;28;19919;-59
2023/08/05 10:52:23;;;;;;;;;;;;;;;22.35;55.89;101119.97;5065393;28;19913;-60
2023/08/05 10:54:48;;;;;;;;;;;;;;;22.34;55.66;101110.97;5098065;28;20222;-60
2023/08/05 10:57:29;;;;;;;;;;;;;;;22.34;55.87;101102.00;5064701;28;19924;-61
2023/08/05 10:59:59;;;;;;;;;;;;;;;22.33;55.75;101106.56;5065255;28;19917;-58
2023/08/05 11:02:25;;;;;;;;;;;;;;;22.33;56.09;101103.03;5063718;28;19924;-57
2023/08/05 11:04:50;;;;;;;;;;;;;;;22.32;55.87;101102.19;5061554;28;20348;-61
2023/08/05 11:07:15;;;;;;;;;;;;;;;22.30;55.82;101093.44;5065273;28;19943;-61
2023/08/05 11:09:40;;;;;;;;;;;;;;;22.34;55.95;101088.44;5064516;28;19920;-60
2023/08/05 11:12:06;;;;;;;;;;;;;;;22.36;56.08;101083.69;5096976;28;19917;-59
2023/08/05 11:14:32;;;;;;;;;;;;;;;22.39;55.98;101083.34;5065324;28;19920;-60
2023/08/05 11:17:00;;;;;;;;;;;;;;;22.40;56.14;101077.72;5065007;28;19912;-60
2023/08/05 11:19:26;;;;;;;;;;;;;;;22.42;55.91;101063.97;5064810;28;19921;-60
2023/08/05 11:21:51;;;;;;;;;;;;;;;22.41;56.29;101065.84;5064990;28;20011;-60
2023/08/05 11:24:19;;;;;;;;;;;;;;;22.43;56.02;101062.97;5064815;28;19913;-61
2023/08/05 11:26:44;;;;;;;;;;;;;;;22.45;56.14;101050.91;5064294;28;19931;-61
2023/08/05 11:29:10;;;;;;;;;;;;;;;22.47;56.11;101053.41;5064765;28;19913;-61
2023/08/05 11:31:35;;;;;;;;;;;;;;;22.49;56.27;101039.69;5064555;28;19928;-60
2023/08/05 11:34:00;;;;;;;;;;;;;;;22.50;56.10;101042.19;5064100;28;19944;-59
2023/08/05 11:36:26;;;;;;;;;;;;;;;22.50;56.28;101031.38;5064447;28;19920;-59
2023/08/05 11:38:51;;;;;;;;;;;;;;;22.51;56.00;101033.03;5064755;28;19924;-60
2023/08/05 11:41:17;;;;;;;;;;;;;;;22.52;56.10;101032.03;5064222;28;19927;-60
2023/08/05 11:43:42;;;;;;;;;;;;;;;22.53;56.32;101028.28;5063498;28;19920;-60
2023/08/05 11:46:07;;;;;;;;;;;;;;;22.52;56.26;101013.06;5064269;28;19942;-61
2023/08/05 11:48:32;;;;;;;;;;;;;;;22.52;56.28;101007.66;5063713;28;19917;-60
2023/08/05 11:50:58;;;;;;;;;;;;;;;22.54;56.44;101008.28;5096675;28;19952;-59
2023/08/05 11:53:24;;;;;;;;;;;;;;;22.53;56.27;101012.03;5096776;28;19917;-58
2023/08/05 11:55:49;;;;;;;;;;;;;;;22.53;56.46;101006.59;5063872;28;19920;-58
2023/08/05 11:58:14;;;;;;;;;;;;;;;22.54;56.38;101005.56;5064131;28;19971;-56
2023/08/05 12:00:44;;;;;;;;;;;;;;;22.52;56.47;100985.97;5064019;28;19913;-58
2023/08/05 12:03:09;;;;;;;;;;;;;;;22.51;56.66;100978.84;5063744;28;19948;-58
2023/08/05 12:05:34;;;;;;;;;;;;;;;22.51;56.52;100965.28;5063494;28;19913;-59
2023/08/05 12:07:59;;;;;;;;;;;;;;;22.52;56.38;100967.00;5064003;28;19919;-58
2023/08/05 12:10:27;;;;;;;;;;;;;;;22.50;55.23;100965.50;5063780;28;19972;-60
2023/08/05 12:12:52;;;;;;;;;;;;;;;22.44;54.69;100967.13;5062799;28;19939;-60
2023/08/05 12:15:24;;;;;;;;;;;;;;;22.41;53.96;100962.91;5063699;28;20358;-60
2023/08/05 12:17:51;;;;;;;;;;;;;;;22.39;53.25;100962.25;5062070;28;19913;-61
2023/08/05 12:20:17;;;;;;;;;;;;;;;22.36;52.76;100956.38;5063516;28;19921;-60
2023/08/05 12:22:42;;;;;;;;;;;;;;;22.33;52.50;100948.63;5063950;28;19931;-61
2023/08/05 12:25:09;;;;;;;;;;;;;;;22.31;52.83;100940.72;5063229;28;20408;-57
2023/08/05 12:27:35;;;;;;;;;;;;;;;22.30;52.79;100933.63;5063293;28;19939;-62
2023/08/05 12:30:00;;;;;;;;;;;;;;;22.27;52.37;100936.69;5064056;28;19913;-61